.
WxDataArchive / Data Records for 2016-02-22
2016-02-21 February 2016 2016-02-23

Data Records for Monday, 22 February 2016

Time	Temp	Chill	HIndex	Humid	Dewpt	 Wind 	HiWind	WindDir	Rain 	Barom
-----	----	-----	------	-----	-----	------	------	-------	-----	-----
00:00	37.9	37.9	37.9	75	30.7	0	0	---	0.00	30.103 
00:05	37.9	37.9	37.9	75	30.7	0	0	---	0.00	30.103 
00:10	37.8	37.8	37.8	75	30.6	0	1	338	0.00	30.103 
00:15	37.8	37.8	37.8	75	30.6	0	0	---	0.00	30.103 
00:20	37.8	37.8	37.8	75	30.6	0	0	---	0.00	30.103 
00:25	37.6	37.6	37.6	75	30.4	0	2	338	0.00	30.103 
00:30	37.5	37.5	37.5	75	30.3	0	1	338	0.00	30.108 
00:35	37.3	37.3	37.3	75	30.1	0	2	338	0.00	30.108 
00:40	37.3	37.3	37.3	76	30.4	0	1	338	0.00	30.108 
00:45	37.0	37.0	37.0	76	30.2	0	2	338	0.00	30.110 
00:50	36.9	36.9	36.9	76	30.1	0	1	338	0.00	30.110 
00:55	36.6	36.6	36.6	76	29.8	0	1	338	0.00	30.110 
01:00	36.3	36.3	36.3	77	29.8	0	2	315	0.00	30.114 
01:05	35.9	35.9	35.9	77	29.4	0	2	315	0.00	30.114 
01:10	35.6	35.6	35.6	78	29.4	0	1	315	0.00	30.114 
01:15	35.5	35.5	35.5	78	29.3	0	1	315	0.00	30.114 
01:20	35.2	35.2	35.2	79	29.4	0	0	---	0.00	30.114 
01:25	35.0	35.0	35.0	79	29.2	0	1	315	0.00	30.114 
01:30	34.7	34.7	34.7	80	29.2	0	0	---	0.00	30.119 
01:35	34.6	34.6	34.6	80	29.1	0	0	---	0.00	30.119 
01:40	34.3	34.3	34.3	80	28.8	0	0	---	0.00	30.119 
01:45	34.1	34.1	34.1	81	28.9	0	0	---	0.00	30.128 
01:50	33.8	33.8	33.8	81	28.6	0	0	---	0.00	30.128 
01:55	33.5	33.5	33.5	81	28.3	0	0	---	0.00	30.128 
02:00	33.4	33.4	33.4	81	28.2	0	0	---	0.00	30.134 
02:05	33.4	33.4	33.4	82	28.5	0	0	---	0.00	30.134 
02:10	33.2	33.2	33.2	82	28.3	0	0	---	0.00	30.134 
02:15	33.2	33.2	33.2	83	28.6	0	1	315	0.00	30.134 
02:20	33.4	33.4	33.4	83	28.8	0	1	315	0.00	30.134 
02:25	33.2	33.2	33.2	84	28.9	0	0	---	0.00	30.134 
02:30	33.2	33.2	33.2	84	28.9	0	0	---	0.00	30.133 
02:35	33.2	33.2	33.2	84	28.9	0	2	315	0.00	30.133 
02:40	33.2	33.2	33.2	84	28.9	0	1	315	0.00	30.133 
02:45	33.1	33.1	33.1	84	28.8	0	2	315	0.00	30.130 
02:50	33.1	33.1	33.1	84	28.8	0	2	315	0.00	30.130 
02:55	33.1	33.1	33.1	84	28.8	0	2	315	0.00	30.130 
03:00	32.9	32.9	32.9	85	28.9	0	1	315	0.00	30.128 
03:05	32.9	32.9	32.9	85	28.9	0	1	315	0.00	30.128 
03:10	32.9	32.9	32.9	85	28.9	0	1	315	0.00	30.128 
03:15	32.8	32.8	32.8	85	28.8	0	2	315	0.00	30.118 
03:20	32.7	32.7	32.7	84	28.4	0	0	---	0.00	30.118 
03:25	32.7	32.7	32.7	84	28.4	0	1	315	0.00	30.118 
03:30	32.5	32.5	32.5	85	28.5	0	0	---	0.00	30.121 
03:35	32.5	32.5	32.5	85	28.5	0	0	---	0.00	30.121 
03:40	32.5	32.5	32.5	85	28.5	0	1	315	0.00	30.121 
03:45	32.5	32.5	32.5	85	28.5	0	0	---	0.00	30.120 
03:50	32.5	32.5	32.5	85	28.5	0	1	315	0.00	30.120 
03:55	32.5	32.5	32.5	85	28.5	0	1	315	0.00	30.120 
04:00	32.4	32.4	32.4	85	28.4	0	0	---	0.00	30.118 
04:05	32.2	32.2	32.2	85	28.2	0	0	---	0.00	30.118 
04:10	32.1	32.1	32.1	84	27.8	0	0	---	0.00	30.118 
04:15	31.8	31.8	31.8	84	27.5	0	0	---	0.00	30.120 
04:20	31.5	31.5	31.5	84	27.2	0	0	---	0.00	30.120 
04:25	31.3	31.3	31.3	85	27.3	0	0	---	0.00	30.120 
04:30	31.0	31.0	31.0	85	27.0	0	0	---	0.00	30.130 
04:35	30.9	30.9	30.9	85	26.9	0	0	---	0.00	30.130 
04:40	30.6	30.6	30.6	85	26.6	0	0	---	0.00	30.130 
04:45	30.4	30.4	30.4	85	26.4	0	0	---	0.00	30.135 
04:50	30.3	30.3	30.3	85	26.3	0	0	---	0.00	30.135 
04:55	30.0	30.0	30.0	86	26.3	0	0	---	0.00	30.135 
05:00	30.0	30.0	30.0	86	26.3	0	1	315	0.00	30.138 
05:05	29.8	29.8	29.8	86	26.1	0	0	---	0.00	30.138 
05:10	29.7	29.7	29.7	86	26.0	0	0	---	0.00	30.138 
05:15	29.5	29.5	29.5	86	25.8	0	0	---	0.00	30.139 
05:20	29.4	29.4	29.4	86	25.7	0	0	---	0.00	30.139 
05:25	29.1	29.1	29.1	87	25.7	0	0	---	0.00	30.139 
05:30	29.1	29.1	29.1	87	25.7	0	0	---	0.00	30.140 
05:35	29.1	29.1	29.1	87	25.7	0	0	---	0.00	30.140 
05:40	29.1	29.1	29.1	87	25.7	0	0	---	0.00	30.140 
05:45	29.1	29.1	29.1	87	25.7	0	0	---	0.00	30.140 
05:50	29.0	29.0	29.0	88	25.9	0	0	---	0.00	30.140 
05:55	29.0	29.0	29.0	88	25.9	0	0	---	0.00	30.140 
06:00	29.0	29.0	29.0	88	25.9	0	0	---	0.00	30.147 
06:05	29.0	29.0	29.0	88	25.9	0	0	---	0.00	30.147 
06:10	29.1	29.1	29.1	88	26.0	0	0	---	0.00	30.147 
06:15	29.3	29.3	29.3	88	26.2	0	0	---	0.00	30.153 
06:20	29.3	29.3	29.3	88	26.2	0	0	---	0.00	30.153 
06:25	29.3	29.3	29.3	88	26.2	0	0	---	0.00	30.153 
06:30	29.4	29.4	29.4	88	26.3	0	0	---	0.00	30.151 
06:35	29.4	29.4	29.4	88	26.3	0	0	---	0.00	30.151 
06:40	29.5	29.5	29.5	88	26.4	0	0	---	0.00	30.151 
06:45	29.5	29.5	29.5	88	26.4	0	1	315	0.00	30.141 
06:50	29.5	29.5	29.5	88	26.4	0	0	---	0.00	30.141 
06:55	29.4	29.4	29.4	88	26.3	0	0	---	0.00	30.141 
07:00	29.4	29.4	29.4	88	26.3	0	0	---	0.00	30.145 
07:05	29.3	29.3	29.3	88	26.2	0	0	---	0.00	30.145 
07:10	29.1	29.1	29.1	88	26.0	0	0	---	0.00	30.145 
07:15	29.0	29.0	29.0	88	25.9	0	0	---	0.00	30.155 
07:20	28.8	28.8	28.8	88	25.7	0	0	---	0.00	30.155 
07:25	28.7	28.7	28.7	88	25.6	0	0	---	0.00	30.155 
07:30	28.5	28.5	28.5	88	25.4	0	0	---	0.00	30.159 
07:35	28.5	28.5	28.5	88	25.4	0	0	---	0.00	30.159 
07:40	28.4	28.4	28.4	88	25.3	0	0	---	0.00	30.159 
07:45	28.4	28.4	28.4	88	25.3	0	0	---	0.00	30.158 
07:50	28.4	28.4	28.4	89	25.6	0	0	---	0.00	30.158 
07:55	28.4	28.4	28.4	89	25.6	0	0	---	0.00	30.158 
08:00	28.4	28.4	28.4	89	25.6	0	0	---	0.00	30.165 
08:05	28.4	28.4	28.4	89	25.6	0	0	---	0.00	30.165 
08:10	28.4	28.4	28.4	89	25.6	0	0	---	0.00	30.165 
08:15	28.5	28.5	28.5	89	25.7	0	0	---	0.00	30.173 
08:20	28.8	28.8	28.8	90	26.2	0	0	---	0.00	30.173 
08:25	29.1	29.1	29.1	90	26.5	0	0	---	0.00	30.173 
08:30	29.4	29.4	29.4	90	26.8	0	0	---	0.00	30.184 
08:35	30.0	30.0	30.0	90	27.4	0	1	315	0.00	30.184 
08:40	30.3	30.3	30.3	90	27.7	0	3	338	0.00	30.184 
08:45	30.7	30.7	30.7	90	28.1	0	3	338	0.00	30.178 
08:50	31.2	31.2	31.2	90	28.6	0	2	338	0.00	30.178 
08:55	31.3	31.3	31.3	90	28.7	1	3	45	0.00	30.178 
09:00	31.5	31.5	31.5	90	28.9	0	2	45	0.00	30.179 
09:05	31.8	31.8	31.8	90	29.2	1	4	68	0.00	30.179 
09:10	31.9	31.9	31.9	90	29.3	2	4	90	0.00	30.179 
09:15	32.1	32.1	32.1	89	29.2	3	7	90	0.00	30.174 
09:20	32.2	32.2	32.2	89	29.3	3	6	90	0.00	30.174 
09:25	32.4	32.4	32.4	89	29.5	2	5	90	0.00	30.174 
09:30	32.7	32.7	32.7	89	29.8	1	3	90	0.00	30.173 
09:35	32.7	32.7	32.7	89	29.8	2	5	90	0.00	30.173 
09:40	32.8	32.8	32.8	89	29.9	3	5	90	0.00	30.173 
09:45	32.9	32.9	32.9	89	30.0	2	4	90	0.00	30.174 
09:50	33.2	33.2	33.2	88	30.0	2	5	90	0.00	30.174 
09:55	33.4	33.4	33.4	88	30.2	1	4	90	0.00	30.174 
10:00	33.5	33.5	33.5	88	30.3	1	4	90	0.00	30.175 
10:05	33.5	33.5	33.5	87	30.1	2	5	90	0.00	30.175 
10:10	33.7	33.7	33.7	87	30.3	2	4	90	0.00	30.175 
10:15	33.8	33.8	33.8	87	30.3	3	6	90	0.00	30.183 
10:20	33.8	33.8	33.8	86	30.1	3	6	112	0.00	30.183 
10:25	34.0	34.0	34.0	86	30.3	2	6	112	0.00	30.183 
10:30	34.0	34.0	34.0	86	30.3	3	7	90	0.00	30.179 
10:35	34.0	34.0	34.0	84	29.7	3	6	90	0.00	30.179 
10:40	34.1	34.1	34.1	84	29.8	3	7	68	0.00	30.179 
10:45	34.3	34.3	34.3	84	30.0	3	7	112	0.00	30.179 
10:50	34.4	34.4	34.4	82	29.5	3	9	90	0.00	30.179 
10:55	34.4	30.8	34.4	81	29.2	4	7	112	0.00	30.179 
11:00	34.7	34.7	34.7	82	29.8	2	6	112	0.00	30.178 
11:05	35.3	35.3	35.3	80	29.8	2	5	112	0.00	30.178 
11:10	35.5	35.5	35.5	78	29.3	3	9	112	0.00	30.178 
11:15	35.3	35.3	35.3	78	29.1	3	8	112	0.00	30.178 
11:20	35.3	31.9	35.3	77	28.8	4	9	112	0.00	30.178 
11:25	35.5	32.1	35.5	76	28.7	4	7	112	0.00	30.178 
11:30	35.9	32.6	35.9	76	29.1	4	7	90	0.00	30.183 
11:35	36.0	36.0	36.0	76	29.2	3	7	112	0.00	30.183 
11:40	36.3	36.3	36.3	74	28.8	2	6	112	0.00	30.183 
11:45	36.6	36.6	36.6	74	29.1	3	7	90	0.00	30.183 
11:50	36.6	36.6	36.6	73	28.8	3	7	90	0.00	30.183 
11:55	36.9	36.9	36.9	73	29.1	3	6	90	0.00	30.183 
12:00	37.2	37.2	37.2	72	29.0	2	6	112	0.00	30.177 
12:05	37.5	37.5	37.5	71	29.0	3	7	90	0.00	30.177 
12:10	37.6	37.6	37.6	71	29.1	3	7	90	0.00	30.177 
12:15	38.0	38.0	38.0	71	29.4	3	6	112	0.00	30.167 
12:20	38.5	38.5	38.5	70	29.6	2	7	90	0.00	30.167 
12:25	39.1	39.1	39.1	69	29.8	2	6	90	0.00	30.167 
12:30	39.6	39.6	39.6	69	30.3	1	5	112	0.00	30.163 
12:35	40.2	40.2	40.2	69	30.9	1	4	68	0.00	30.163 
12:40	40.8	40.8	40.8	68	31.1	1	6	338	0.00	30.163 
12:45	40.6	40.6	40.6	66	30.1	2	4	112	0.00	30.161 
12:50	40.5	40.5	40.5	67	30.4	2	6	112	0.00	30.161 
12:55	40.2	40.2	40.2	66	29.8	1	3	22	0.00	30.161 
13:00	40.3	40.3	40.3	67	30.2	1	4	22	0.00	30.154 
13:05	40.8	40.8	40.8	65	30.0	2	7	112	0.00	30.154 
13:10	40.9	40.9	40.9	65	30.1	1	5	90	0.00	30.154 
13:15	40.8	40.8	40.8	65	30.0	0	3	68	0.00	30.148 
13:20	40.6	40.6	40.6	63	29.0	1	4	45	0.00	30.148 
13:25	40.8	40.8	40.8	63	29.2	1	6	22	0.00	30.148 
13:30	40.9	40.9	40.9	62	28.9	1	3	68	0.00	30.152 
13:35	41.1	41.1	41.1	63	29.5	1	5	90	0.00	30.152 
13:40	41.1	41.1	41.1	63	29.5	0	3	68	0.00	30.152 
13:45	40.9	40.9	40.9	63	29.3	1	3	68	0.00	30.151 
13:50	40.8	40.8	40.8	63	29.2	2	10	112	0.00	30.151 
13:55	40.8	40.8	40.8	64	29.6	0	4	68	0.00	30.151 
14:00	40.8	40.8	40.8	64	29.6	1	5	45	0.00	30.152 
14:05	41.1	41.1	41.1	62	29.1	0	3	45	0.00	30.152 
14:10	41.1	41.1	41.1	63	29.5	0	3	45	0.00	30.152 
14:15	40.9	40.9	40.9	62	28.9	1	5	90	0.00	30.146 
14:20	40.9	40.9	40.9	61	28.5	1	3	22	0.00	30.146 
14:25	40.9	40.9	40.9	62	28.9	1	3	315	0.00	30.146 
14:30	41.1	41.1	41.1	61	28.7	1	4	90	0.00	30.142 
14:35	41.1	41.1	41.1	59	27.9	2	5	90	0.00	30.142 
14:40	41.1	41.1	41.1	60	28.3	1	4	90	0.00	30.142 
14:45	41.1	41.1	41.1	61	28.7	1	3	90	0.00	30.138 
14:50	41.2	41.2	41.2	59	28.0	2	7	90	0.00	30.138 
14:55	41.2	41.2	41.2	59	28.0	2	6	90	0.00	30.138 
15:00	41.2	41.2	41.2	59	28.0	0	2	68	0.00	30.137 
15:05	41.3	41.3	41.3	58	27.7	0	3	68	0.00	30.137 
15:10	41.5	41.5	41.5	58	27.8	1	4	45	0.00	30.137 
15:15	41.8	41.8	41.8	56	27.3	2	6	90	0.00	30.134 
15:20	41.8	41.8	41.8	56	27.3	1	5	112	0.00	30.134 
15:25	41.9	41.9	41.9	56	27.4	0	3	112	0.00	30.134 
15:30	41.9	41.9	41.9	56	27.4	1	3	112	0.00	30.131 
15:35	42.1	42.1	42.1	57	28.0	1	3	112	0.00	30.131 
15:40	42.3	42.3	42.3	56	27.7	1	5	90	0.00	30.131 
15:45	42.6	42.6	42.6	57	28.4	1	4	112	0.00	30.124 
15:50	42.6	42.6	42.6	55	27.6	2	6	112	0.00	30.124 
15:55	42.2	42.2	42.2	54	26.8	1	3	112	0.00	30.124 
16:00	41.8	41.8	41.8	56	27.3	1	4	112	0.00	30.125 
16:05	41.3	41.3	41.3	57	27.2	0	3	68	0.00	30.125 
16:10	41.5	41.5	41.5	56	27.0	1	5	112	0.00	30.125 
16:15	41.8	41.8	41.8	56	27.3	1	2	68	0.00	30.125 
16:20	42.1	42.1	42.1	56	27.5	1	6	68	0.00	30.125 
16:25	42.1	42.1	42.1	55	27.1	2	6	112	0.00	30.125 
16:30	41.8	41.8	41.8	56	27.3	1	4	112	0.00	30.117 
16:35	41.5	41.5	41.5	58	27.8	0	3	45	0.00	30.117 
16:40	41.2	41.2	41.2	58	27.6	1	3	112	0.00	30.117 
16:45	41.2	41.2	41.2	57	27.1	1	3	68	0.00	30.114 
16:50	41.1	41.1	41.1	58	27.5	1	5	90	0.00	30.114 
16:55	41.1	41.1	41.1	58	27.5	1	4	0	0.00	30.114 
17:00	41.1	41.1	41.1	58	27.5	1	5	45	0.00	30.112 
17:05	41.1	41.1	41.1	57	27.0	1	5	112	0.00	30.112 
17:10	41.1	41.1	41.1	58	27.5	1	4	112	0.00	30.112 
17:15	40.9	40.9	40.9	59	27.7	0	3	68	0.00	30.112 
17:20	40.8	40.8	40.8	59	27.6	1	3	22	0.00	30.112 
17:25	40.8	40.8	40.8	59	27.6	0	3	90	0.00	30.112 
17:30	40.6	40.6	40.6	59	27.4	1	3	0	0.00	30.108 
17:35	40.6	40.6	40.6	58	27.0	1	5	45	0.00	30.108 
17:40	40.5	40.5	40.5	58	26.9	1	3	90	0.00	30.108 
17:45	40.2	40.2	40.2	59	27.0	1	3	90	0.00	30.111 
17:50	40.1	40.1	40.1	59	26.9	1	3	45	0.00	30.111 
17:55	39.9	39.9	39.9	60	27.2	0	2	68	0.00	30.111 
18:00	39.8	39.8	39.8	60	27.1	0	4	68	0.00	30.112 
18:05	39.6	39.6	39.6	61	27.3	0	2	135	0.00	30.112 
18:10	39.5	39.5	39.5	61	27.2	0	2	135	0.00	30.112 
18:15	39.3	39.3	39.3	62	27.4	0	3	68	0.00	30.111 
18:20	39.1	39.1	39.1	62	27.2	0	2	68	0.00	30.111 
18:25	38.8	38.8	38.8	61	26.5	0	1	68	0.00	30.111 
18:30	38.6	38.6	38.6	62	26.7	0	2	68	0.00	30.113 
18:35	38.3	38.3	38.3	62	26.4	0	1	68	0.00	30.113 
18:40	38.0	38.0	38.0	63	26.5	0	1	68	0.00	30.113 
18:45	37.8	37.8	37.8	63	26.4	0	2	68	0.00	30.117 
18:50	37.6	37.6	37.6	64	26.5	0	1	45	0.00	30.117 
18:55	37.3	37.3	37.3	64	26.3	0	2	45	0.00	30.117 
19:00	37.2	37.2	37.2	65	26.5	0	1	45	0.00	30.117 
19:05	36.9	36.9	36.9	65	26.3	0	0	---	0.00	30.117 
19:10	36.6	36.6	36.6	66	26.3	0	1	45	0.00	30.117 
19:15	36.5	36.5	36.5	66	26.2	0	1	45	0.00	30.126 
19:20	36.2	36.2	36.2	66	26.0	0	1	45	0.00	30.126 
19:25	36.0	36.0	36.0	66	25.8	0	1	45	0.00	30.126 
19:30	36.0	36.0	36.0	66	25.8	0	0	---	0.00	30.128 
19:35	35.9	35.9	35.9	67	26.0	0	1	45	0.00	30.128 
19:40	35.6	35.6	35.6	67	25.7	0	0	---	0.00	30.128 
19:45	35.5	35.5	35.5	68	26.0	1	5	45	0.00	30.133 
19:50	35.2	35.2	35.2	68	25.7	0	2	112	0.00	30.133 
19:55	35.0	35.0	35.0	68	25.5	1	3	68	0.00	30.133 
20:00	34.7	34.7	34.7	69	25.6	0	1	68	0.00	30.146 
20:05	34.4	34.4	34.4	69	25.3	1	5	68	0.00	30.146 
20:10	34.1	34.1	34.1	69	25.0	1	6	90	0.00	30.146 
20:15	34.0	34.0	34.0	70	25.3	1	4	112	0.00	30.144 
20:20	33.8	33.8	33.8	71	25.4	2	5	112	0.00	30.144 
20:25	33.5	33.5	33.5	71	25.1	2	6	90	0.00	30.144 
20:30	33.4	33.4	33.4	72	25.4	2	6	90	0.00	30.144 
20:35	33.2	33.2	33.2	72	25.2	2	5	90	0.00	30.144 
20:40	33.1	33.1	33.1	72	25.1	1	3	90	0.00	30.144 
20:45	32.9	32.9	32.9	73	25.2	2	4	90	0.00	30.149 
20:50	32.7	32.7	32.7	73	25.0	1	4	90	0.00	30.149 
20:55	32.5	32.5	32.5	73	24.8	3	5	90	0.00	30.149 
21:00	32.5	32.5	32.5	73	24.8	3	7	90	0.00	30.151 
21:05	32.4	32.4	32.4	74	25.1	2	6	90	0.00	30.151 
21:10	32.1	32.1	32.1	74	24.8	3	6	90	0.00	30.151 
21:15	31.8	31.8	31.8	75	24.8	3	7	90	0.00	30.150 
21:20	31.5	31.5	31.5	75	24.5	3	9	90	0.00	30.150 
21:25	31.3	31.3	31.3	75	24.3	3	6	112	0.00	30.150 
21:30	31.0	31.0	31.0	76	24.3	3	9	90	0.00	30.152 
21:35	30.7	30.7	30.7	76	24.0	3	6	90	0.00	30.152 
21:40	30.6	30.6	30.6	77	24.3	2	4	90	0.00	30.152 
21:45	30.3	30.3	30.3	77	24.0	2	5	90	0.00	30.156 
21:50	30.1	30.1	30.1	77	23.8	2	5	90	0.00	30.156 
21:55	30.0	30.0	30.0	77	23.7	1	4	90	0.00	30.156 
22:00	29.7	29.7	29.7	78	23.7	1	3	90	0.00	30.151 
22:05	29.5	29.5	29.5	78	23.5	1	5	90	0.00	30.151 
22:10	29.5	29.5	29.5	77	23.2	2	5	90	0.00	30.151 
22:15	29.4	29.4	29.4	77	23.1	1	5	90	0.00	30.150 
22:20	29.4	29.4	29.4	75	22.5	2	7	112	0.00	30.150 
22:25	29.3	29.3	29.3	75	22.4	1	4	90	0.00	30.150 
22:30	29.1	29.1	29.1	74	21.9	1	3	90	0.00	30.152 
22:35	29.0	29.0	29.0	74	21.8	1	3	90	0.00	30.152 
22:40	28.8	28.8	28.8	73	21.3	1	3	90	0.00	30.152 
22:45	28.8	28.8	28.8	74	21.6	1	3	90	0.00	30.151 
22:50	28.7	28.7	28.7	74	21.5	1	4	90	0.00	30.151 
22:55	28.5	28.5	28.5	74	21.3	1	4	90	0.00	30.151 
23:00	28.4	28.4	28.4	75	21.5	1	3	90	0.00	30.151 
23:05	28.4	28.4	28.4	75	21.5	1	5	90	0.00	30.151 
23:10	28.2	28.2	28.2	76	21.6	1	3	90	0.00	30.151 
23:15	28.2	28.2	28.2	76	21.6	1	3	90	0.00	30.148 
23:20	28.1	28.1	28.1	76	21.5	1	4	90	0.00	30.148 
23:25	27.9	27.9	27.9	76	21.3	1	4	90	0.00	30.148 
23:30	27.9	27.9	27.9	77	21.6	0	3	90	0.00	30.146 
23:35	27.8	27.8	27.8	77	21.5	0	3	90	0.00	30.146 
23:40	27.8	27.8	27.8	78	21.8	0	0	---	0.00	30.146 
23:45	27.6	27.6	27.6	78	21.7	0	1	90	0.00	30.146 
23:50	27.6	27.6	27.6	79	22.0	0	2	90	0.00	30.146 
23:55	27.5	27.5	27.5	79	21.9	0	3	90	0.00	30.146 

CoCoRaHS
IN-AL-39
A2 Web Hosting
Creative Commons License
GoDaddy
search engine by freefind advanced

loaded 2018-11-16 00:19:56 • last modified 2010-11-18 10:43:29
Privacy PolicyDisclaimer
• wx.awcolley.com is powered by PmWiki v.2002016 •
• all content (unless otherwise noted) © 2018 A W Colley